sensor_id;sensor_type;location;lat;lon;timestamp;pressure;altitude;pressure_sealevel;temperature;humidity
6136;BME280;24008;42.664;23.372;2022-12-07T00:01:04;94689.47;;;4.56;100.00
6136;BME280;24008;42.664;23.372;2022-12-07T00:03:31;94751.03;;;4.93;100.00
6136;BME280;24008;42.664;23.372;2022-12-07T00:05:58;94744.25;;;4.94;100.00
6136;BME280;24008;42.664;23.372;2022-12-07T00:08:25;94679.34;;;4.56;100.00
6136;BME280;24008;42.664;23.372;2022-12-07T00:10:52;94736.31;;;4.98;100.00
6136;BME280;24008;42.664;23.372;2022-12-07T00:13:20;94614.13;;;4.23;100.00
6136;BME280;24008;42.664;23.372;2022-12-07T00:15:47;94674.88;;;4.60;100.00
6136;BME280;24008;42.664;23.372;2022-12-07T00:18:14;94596.81;;;4.06;100.00
6136;BME280;24008;42.664;23.372;2022-12-07T00:20:41;94725.63;;;4.95;100.00
6136;BME280;24008;42.664;23.372;2022-12-07T00:23:07;94585.97;;;4.04;100.00
6136;BME280;24008;42.664;23.372;2022-12-07T00:25:34;94720.84;;;4.90;100.00
6136;BME280;24008;42.664;23.372;2022-12-07T00:28:01;94732.81;;;4.88;100.00
6136;BME280;24008;42.664;23.372;2022-12-07T00:30:29;94720.25;;;4.87;100.00
6136;BME280;24008;42.664;23.372;2022-12-07T00:32:56;94659.34;;;4.41;100.00
6136;BME280;24008;42.664;23.372;2022-12-07T00:35:22;94715.66;;;4.68;100.00
6136;BME280;24008;42.664;23.372;2022-12-07T00:37:49;94726.84;;;4.89;100.00
6136;BME280;24008;42.664;23.372;2022-12-07T00:40:16;94767.25;;;4.91;100.00
6136;BME280;24008;42.664;23.372;2022-12-07T00:42:43;94741.13;;;4.90;100.00
6136;BME280;24008;42.664;23.372;2022-12-07T00:45:10;94583.38;;;3.93;100.00
6136;BME280;24008;42.664;23.372;2022-12-07T00:47:38;94721.66;;;4.91;100.00
6136;BME280;24008;42.664;23.372;2022-12-07T00:50:05;94719.84;;;4.93;100.00
6136;BME280;24008;42.664;23.372;2022-12-07T00:52:32;94747.59;;;4.94;100.00
6136;BME280;24008;42.664;23.372;2022-12-07T00:54:59;94684.84;;;4.74;100.00
6136;BME280;24008;42.664;23.372;2022-12-07T00:57:26;94717.19;;;4.94;100.00
6136;BME280;24008;42.664;23.372;2022-12-07T00:59:53;94716.41;;;4.94;100.00
6136;BME280;24008;42.664;23.372;2022-12-07T01:02:20;94587.88;;;4.13;100.00
6136;BME280;24008;42.664;23.372;2022-12-07T01:04:48;94710.06;;;4.99;100.00
6136;BME280;24008;42.664;23.372;2022-12-07T01:07:15;94719.28;;;5.00;100.00
6136;BME280;24008;42.664;23.372;2022-12-07T01:09:42;94712.50;;;5.01;100.00
6136;BME280;24008;42.664;23.372;2022-12-07T01:12:09;94720.81;;;5.03;100.00
6136;BME280;24008;42.664;23.372;2022-12-07T01:14:36;94721.63;;;5.03;100.00
6136;BME280;24008;42.664;23.372;2022-12-07T01:17:03;94714.72;;;5.05;100.00
6136;BME280;24008;42.664;23.372;2022-12-07T01:19:29;94711.47;;;5.03;100.00
6136;BME280;24008;42.664;23.372;2022-12-07T01:21:58;94694.78;;;5.01;100.00
6136;BME280;24008;42.664;23.372;2022-12-07T01:24:24;94673.84;;;4.86;100.00
6136;BME280;24008;42.664;23.372;2022-12-07T01:26:51;94705.16;;;5.09;100.00
6136;BME280;24008;42.664;23.372;2022-12-07T01:29:18;94703.44;;;5.10;100.00
6136;BME280;24008;42.664;23.372;2022-12-07T01:31:44;94704.16;;;5.12;100.00
6136;BME280;24008;42.664;23.372;2022-12-07T01:34:11;94595.97;;;4.42;100.00
6136;BME280;24008;42.664;23.372;2022-12-07T01:36:38;94644.53;;;4.71;100.00
6136;BME280;24008;42.664;23.372;2022-12-07T01:39:07;94642.47;;;4.65;100.00
6136;BME280;24008;42.664;23.372;2022-12-07T01:41:37;94419.50;;;3.14;100.00
6136;BME280;24008;42.664;23.372;2022-12-07T01:44:15;94695.31;;;4.93;100.00
6136;BME280;24008;42.664;23.372;2022-12-07T01:46:43;94707.66;;;4.98;100.00
6136;BME280;24008;42.664;23.372;2022-12-07T01:49:16;94699.94;;;4.99;100.00
6136;BME280;24008;42.664;23.372;2022-12-07T01:51:45;94687.34;;;4.87;100.00
6136;BME280;24008;42.664;23.372;2022-12-07T01:54:16;94722.84;;;4.98;100.00
6136;BME280;24008;42.664;23.372;2022-12-07T01:56:48;94696.13;;;4.94;100.00
6136;BME280;24008;42.664;23.372;2022-12-07T01:59:18;94695.44;;;4.92;100.00
6136;BME280;24008;42.664;23.372;2022-12-07T02:01:46;94693.91;;;4.89;100.00
6136;BME280;24008;42.664;23.372;2022-12-07T02:04:13;94690.47;;;4.90;100.00
6136;BME280;24008;42.664;23.372;2022-12-07T02:06:41;94567.97;;;4.09;100.00
6136;BME280;24008;42.664;23.372;2022-12-07T02:09:09;94602.97;;;4.39;100.00
6136;BME280;24008;42.664;23.372;2022-12-07T02:11:37;94638.50;;;4.61;100.00
6136;BME280;24008;42.664;23.372;2022-12-07T02:14:05;94681.56;;;4.85;100.00
6136;BME280;24008;42.664;23.372;2022-12-07T02:17:03;94605.03;;;4.33;100.00
6136;BME280;24008;42.664;23.372;2022-12-07T02:20:13;94686.97;;;4.80;100.00
6136;BME280;24008;42.664;23.372;2022-12-07T02:26:02;94686.47;;;4.75;100.00
6136;BME280;24008;42.664;23.372;2022-12-07T02:28:51;94596.88;;;4.17;100.00
6136;BME280;24008;42.664;23.372;2022-12-07T02:31:25;94672.09;;;4.76;100.00
6136;BME280;24008;42.664;23.372;2022-12-07T02:33:55;94633.28;;;4.51;100.00
6136;BME280;24008;42.664;23.372;2022-12-07T02:36:28;94634.38;;;4.60;100.00
6136;BME280;24008;42.664;23.372;2022-12-07T02:39:01;94490.50;;;3.71;100.00
6136;BME280;24008;42.664;23.372;2022-12-07T02:41:33;94417.25;;;3.22;100.00
6136;BME280;24008;42.664;23.372;2022-12-07T02:44:06;94665.78;;;4.81;100.00
6136;BME280;24008;42.664;23.372;2022-12-07T02:46:38;94649.56;;;4.60;100.00
6136;BME280;24008;42.664;23.372;2022-12-07T02:49:07;94681.41;;;4.75;100.00
6136;BME280;24008;42.664;23.372;2022-12-07T02:51:39;94615.34;;;4.30;100.00
6136;BME280;24008;42.664;23.372;2022-12-07T02:54:11;94670.91;;;4.68;100.00
6136;BME280;24008;42.664;23.372;2022-12-07T02:56:45;94616.16;;;4.31;100.00
6136;BME280;24008;42.664;23.372;2022-12-07T02:59:21;94548.09;;;3.79;100.00
6136;BME280;24008;42.664;23.372;2022-12-07T03:01:56;94662.00;;;4.63;100.00
6136;BME280;24008;42.664;23.372;2022-12-07T03:04:36;94600.81;;;4.21;100.00
6136;BME280;24008;42.664;23.372;2022-12-07T03:07:13;94470.28;;;3.35;100.00
6136;BME280;24008;42.664;23.372;2022-12-07T03:09:50;94659.00;;;4.58;100.00
6136;BME280;24008;42.664;23.372;2022-12-07T03:12:24;94650.69;;;4.56;100.00
6136;BME280;24008;42.664;23.372;2022-12-07T03:14:58;94616.75;;;4.34;100.00
6136;BME280;24008;42.664;23.372;2022-12-07T03:17:29;94647.56;;;4.52;100.00
6136;BME280;24008;42.664;23.372;2022-12-07T03:20:00;94558.00;;;3.94;100.00
6136;BME280;24008;42.664;23.372;2022-12-07T03:22:31;94653.53;;;4.51;100.00
6136;BME280;24008;42.664;23.372;2022-12-07T03:25:00;94641.78;;;4.50;100.00
6136;BME280;24008;42.664;23.372;2022-12-07T03:27:32;94642.72;;;4.49;100.00
6136;BME280;24008;42.664;23.372;2022-12-07T03:30:05;94571.72;;;4.03;100.00
6136;BME280;24008;42.664;23.372;2022-12-07T03:32:36;94620.41;;;4.30;100.00
6136;BME280;24008;42.664;23.372;2022-12-07T03:35:06;94655.38;;;4.49;100.00
6136;BME280;24008;42.664;23.372;2022-12-07T03:37:40;94656.50;;;4.45;100.00
6136;BME280;24008;42.664;23.372;2022-12-07T03:40:14;94489.56;;;3.36;100.00
6136;BME280;24008;42.664;23.372;2022-12-07T03:42:43;94658.84;;;4.35;100.00
6136;BME280;24008;42.664;23.372;2022-12-07T03:45:11;94611.06;;;4.07;100.00
6136;BME280;24008;42.664;23.372;2022-12-07T03:47:44;94645.50;;;4.33;100.00
6136;BME280;24008;42.664;23.372;2022-12-07T03:50:16;94408.94;;;2.83;100.00
6136;BME280;24008;42.664;23.372;2022-12-07T03:52:47;94446.34;;;3.02;100.00
6136;BME280;24008;42.664;23.372;2022-12-07T03:55:20;94645.72;;;4.30;100.00
6136;BME280;24008;42.664;23.372;2022-12-07T03:57:52;94647.53;;;4.28;100.00
6136;BME280;24008;42.664;23.372;2022-12-07T04:00:22;94643.19;;;4.30;100.00
6136;BME280;24008;42.664;23.372;2022-12-07T04:02:51;94589.13;;;3.95;100.00
6136;BME280;24008;42.664;23.372;2022-12-07T04:05:18;94621.09;;;4.09;100.00
6136;BME280;24008;42.664;23.372;2022-12-07T04:07:45;94523.69;;;3.54;100.00
6136;BME280;24008;42.664;23.372;2022-12-07T04:10:12;94641.06;;;4.24;100.00
6136;BME280;24008;42.664;23.372;2022-12-07T04:12:39;94639.34;;;4.25;100.00
6136;BME280;24008;42.664;23.372;2022-12-07T04:15:07;94597.03;;;3.90;100.00
6136;BME280;24008;42.664;23.372;2022-12-07T04:17:36;94644.28;;;4.26;100.00
6136;BME280;24008;42.664;23.372;2022-12-07T04:20:03;94635.78;;;4.27;100.00
6136;BME280;24008;42.664;23.372;2022-12-07T04:22:30;94636.00;;;4.24;100.00
6136;BME280;24008;42.664;23.372;2022-12-07T04:24:57;94629.56;;;4.20;100.00
6136;BME280;24008;42.664;23.372;2022-12-07T04:27:24;94576.63;;;3.81;100.00
6136;BME280;24008;42.664;23.372;2022-12-07T04:29:50;94583.09;;;3.85;100.00
6136;BME280;24008;42.664;23.372;2022-12-07T04:32:17;94644.31;;;4.14;100.00
6136;BME280;24008;42.664;23.372;2022-12-07T04:34:45;94642.00;;;4.11;100.00
6136;BME280;24008;42.664;23.372;2022-12-07T04:37:12;94640.91;;;4.02;100.00
6136;BME280;24008;42.664;23.372;2022-12-07T04:39:39;94582.72;;;3.53;100.00
6136;BME280;24008;42.664;23.372;2022-12-07T04:42:06;94475.25;;;2.85;100.00
6136;BME280;24008;42.664;23.372;2022-12-07T04:44:33;94650.53;;;3.97;100.00
6136;BME280;24008;42.664;23.372;2022-12-07T04:46:59;94611.00;;;3.71;100.00
6136;BME280;24008;42.664;23.372;2022-12-07T04:49:26;94655.28;;;3.89;100.00
6136;BME280;24008;42.664;23.372;2022-12-07T04:51:54;94651.25;;;3.86;100.00
6136;BME280;24008;42.664;23.372;2022-12-07T04:54:21;94582.44;;;3.32;100.00
6136;BME280;24008;42.664;23.372;2022-12-07T04:56:48;94555.25;;;3.23;100.00
6136;BME280;24008;42.664;23.372;2022-12-07T04:59:16;94646.78;;;3.77;100.00
6136;BME280;24008;42.664;23.372;2022-12-07T05:01:43;94486.16;;;2.73;100.00
6136;BME280;24008;42.664;23.372;2022-12-07T05:04:10;94586.38;;;3.36;100.00
6136;BME280;24008;42.664;23.372;2022-12-07T05:06:37;94591.00;;;3.30;100.00
6136;BME280;24008;42.664;23.372;2022-12-07T05:09:05;94650.03;;;3.67;100.00
6136;BME280;24008;42.664;23.372;2022-12-07T05:11:32;94652.56;;;3.67;100.00
6136;BME280;24008;42.664;23.372;2022-12-07T05:14:07;94652.66;;;3.65;100.00
6136;BME280;24008;42.664;23.372;2022-12-07T05:16:34;94652.66;;;3.65;100.00
6136;BME280;24008;42.664;23.372;2022-12-07T05:19:01;94491.28;;;2.59;100.00
6136;BME280;24008;42.664;23.372;2022-12-07T05:21:28;94653.88;;;3.59;100.00
6136;BME280;24008;42.664;23.372;2022-12-07T05:23:55;94658.22;;;3.57;100.00
6136;BME280;24008;42.664;23.372;2022-12-07T05:26:24;94649.84;;;3.57;100.00
6136;BME280;24008;42.664;23.372;2022-12-07T05:28:51;94645.78;;;3.54;100.00
6136;BME280;24008;42.664;23.372;2022-12-07T05:31:18;94654.06;;;3.56;100.00
6136;BME280;24008;42.664;23.372;2022-12-07T05:33:45;94655.09;;;3.54;100.00
6136;BME280;24008;42.664;23.372;2022-12-07T05:36:12;94630.41;;;3.32;100.00
6136;BME280;24008;42.664;23.372;2022-12-07T05:38:39;94658.50;;;3.53;100.00
6136;BME280;24008;42.664;23.372;2022-12-07T05:41:07;94415.03;;;2.03;100.00
6136;BME280;24008;42.664;23.372;2022-12-07T05:43:56;94647.41;;;3.55;100.00
6136;BME280;24008;42.664;23.372;2022-12-07T05:46:23;94609.22;;;3.35;100.00
6136;BME280;24008;42.664;23.372;2022-12-07T05:48:50;94652.25;;;3.58;100.00
6136;BME280;24008;42.664;23.372;2022-12-07T05:51:17;94469.56;;;2.57;100.00
6136;BME280;24008;42.664;23.372;2022-12-07T05:53:44;94649.41;;;3.76;100.00
6136;BME280;24008;42.664;23.372;2022-12-07T05:56:10;94643.16;;;3.81;100.00
6136;BME280;24008;42.664;23.372;2022-12-07T05:58:37;94576.84;;;3.40;100.00
6136;BME280;24008;42.664;23.372;2022-12-07T06:01:23;94641.81;;;3.88;100.00
6136;BME280;24008;42.664;23.372;2022-12-07T06:03:49;94544.72;;;3.42;100.00
6136;BME280;24008;42.664;23.372;2022-12-07T06:06:16;94643.94;;;4.07;100.00
6136;BME280;24008;42.664;23.372;2022-12-07T06:08:43;94476.25;;;3.08;100.00
6136;BME280;24008;42.664;23.372;2022-12-07T06:11:10;94645.13;;;4.14;100.00
6136;BME280;24008;42.664;23.372;2022-12-07T06:13:54;94611.56;;;3.99;100.00
6136;BME280;24008;42.664;23.372;2022-12-07T06:16:20;94614.72;;;4.03;100.00
6136;BME280;24008;42.664;23.372;2022-12-07T06:18:48;94391.69;;;2.77;100.00
6136;BME280;24008;42.664;23.372;2022-12-07T06:21:15;94605.81;;;4.10;100.00
6136;BME280;24008;42.664;23.372;2022-12-07T06:23:42;94624.38;;;4.22;100.00
6136;BME280;24008;42.664;23.372;2022-12-07T06:26:09;94634.19;;;4.26;100.00
6136;BME280;24008;42.664;23.372;2022-12-07T06:28:36;94594.47;;;4.03;100.00
6136;BME280;24008;42.664;23.372;2022-12-07T06:31:03;94575.09;;;3.91;100.00
6136;BME280;24008;42.664;23.372;2022-12-07T06:33:29;94622.75;;;4.33;100.00
6136;BME280;24008;42.664;23.372;2022-12-07T06:35:57;94657.38;;;4.57;100.00
6136;BME280;24008;42.664;23.372;2022-12-07T06:38:24;94653.50;;;4.64;100.00
6136;BME280;24008;42.664;23.372;2022-12-07T06:40:51;94627.75;;;4.46;100.00
6136;BME280;24008;42.664;23.372;2022-12-07T06:43:18;94655.28;;;4.75;100.00
6136;BME280;24008;42.664;23.372;2022-12-07T06:45:44;94651.28;;;4.83;100.00
6136;BME280;24008;42.664;23.372;2022-12-07T06:48:11;94671.72;;;4.93;100.00
6136;BME280;24008;42.664;23.372;2022-12-07T06:50:38;94661.25;;;4.97;100.00
6136;BME280;24008;42.664;23.372;2022-12-07T06:53:06;94574.63;;;4.46;100.00
6136;BME280;24008;42.664;23.372;2022-12-07T06:55:34;94632.44;;;4.87;100.00
6136;BME280;24008;42.664;23.372;2022-12-07T06:58:00;94648.34;;;4.89;100.00
6136;BME280;24008;42.664;23.372;2022-12-07T07:00:28;94665.44;;;5.10;100.00
6136;BME280;24008;42.664;23.372;2022-12-07T07:02:55;94667.28;;;5.07;100.00
6136;BME280;24008;42.664;23.372;2022-12-07T07:05:22;94661.19;;;5.10;100.00
6136;BME280;24008;42.664;23.372;2022-12-07T07:07:49;94670.28;;;5.13;100.00
6136;BME280;24008;42.664;23.372;2022-12-07T07:10:17;94658.47;;;5.24;100.00
6136;BME280;24008;42.664;23.372;2022-12-07T07:12:44;94450.84;;;4.08;100.00
6136;BME280;24008;42.664;23.372;2022-12-07T07:15:10;94584.25;;;5.00;100.00
6136;BME280;24008;42.664;23.372;2022-12-07T07:17:37;94668.59;;;5.59;100.00
6136;BME280;24008;42.664;23.372;2022-12-07T07:20:05;94665.84;;;5.73;100.00
6136;BME280;24008;42.664;23.372;2022-12-07T07:22:32;94663.53;;;5.82;100.00
6136;BME280;24008;42.664;23.372;2022-12-07T07:24:59;94667.00;;;5.80;100.00
6136;BME280;24008;42.664;23.372;2022-12-07T07:27:27;94666.38;;;5.90;100.00
6136;BME280;24008;42.664;23.372;2022-12-07T07:29:54;94663.38;;;6.07;100.00
6136;BME280;24008;42.664;23.372;2022-12-07T07:32:20;94666.97;;;6.27;100.00
6136;BME280;24008;42.664;23.372;2022-12-07T07:34:47;94674.66;;;6.47;98.97
6136;BME280;24008;42.664;23.372;2022-12-07T07:37:14;94673.63;;;6.93;97.50
6136;BME280;24008;42.664;23.372;2022-12-07T07:39:41;94678.72;;;7.25;94.33
6136;BME280;24008;42.664;23.372;2022-12-07T07:42:08;94462.25;;;6.05;91.77
6136;BME280;24008;42.664;23.372;2022-12-07T07:44:36;94674.72;;;7.64;90.18
6136;BME280;24008;42.664;23.372;2022-12-07T07:47:03;94674.97;;;7.82;88.33
6136;BME280;24008;42.664;23.372;2022-12-07T07:49:30;94674.25;;;8.31;87.31
6136;BME280;24008;42.664;23.372;2022-12-07T07:51:56;94666.66;;;8.81;84.52
6136;BME280;24008;42.664;23.372;2022-12-07T07:54:23;94658.66;;;9.14;80.31
6136;BME280;24008;42.664;23.372;2022-12-07T07:56:50;94665.88;;;9.09;78.83
6136;BME280;24008;42.664;23.372;2022-12-07T07:59:17;94662.41;;;9.39;78.34
6136;BME280;24008;42.664;23.372;2022-12-07T08:01:45;94666.06;;;9.93;75.94
6136;BME280;24008;42.664;23.372;2022-12-07T08:04:11;94672.94;;;10.39;74.00
6136;BME280;24008;42.664;23.372;2022-12-07T08:06:38;94665.53;;;10.73;71.63
6136;BME280;24008;42.664;23.372;2022-12-07T08:09:07;94668.22;;;10.89;69.70
6136;BME280;24008;42.664;23.372;2022-12-07T08:11:34;94674.84;;;10.37;69.54
6136;BME280;24008;42.664;23.372;2022-12-07T08:14:01;94672.13;;;9.82;70.52
6136;BME280;24008;42.664;23.372;2022-12-07T08:16:28;94522.88;;;8.54;73.35
6136;BME280;24008;42.664;23.372;2022-12-07T08:18:56;94659.44;;;9.24;74.02
6136;BME280;24008;42.664;23.372;2022-12-07T08:21:23;94613.59;;;8.46;76.76
6136;BME280;24008;42.664;23.372;2022-12-07T08:23:50;94663.69;;;8.76;77.73
6136;BME280;24008;42.664;23.372;2022-12-07T08:26:17;94635.47;;;8.58;78.30
6136;BME280;24008;42.664;23.372;2022-12-07T08:28:43;94666.34;;;8.64;78.47
6136;BME280;24008;42.664;23.372;2022-12-07T08:31:13;94638.94;;;8.38;79.02
6136;BME280;24008;42.664;23.372;2022-12-07T08:33:40;94664.63;;;8.75;78.35
6136;BME280;24008;42.664;23.372;2022-12-07T08:36:10;94621.00;;;8.49;77.82
6136;BME280;24008;42.664;23.372;2022-12-07T08:38:39;94608.13;;;8.50;77.64
6136;BME280;24008;42.664;23.372;2022-12-07T08:41:06;94659.78;;;8.72;78.73
6136;BME280;24008;42.664;23.372;2022-12-07T08:43:34;94637.63;;;8.53;78.63
6136;BME280;24008;42.664;23.372;2022-12-07T08:46:06;94661.50;;;8.52;79.22
6136;BME280;24008;42.664;23.372;2022-12-07T08:48:36;94665.44;;;8.35;79.95
6136;BME280;24008;42.664;23.372;2022-12-07T08:51:04;94591.28;;;7.88;81.59
6136;BME280;24008;42.664;23.372;2022-12-07T08:53:33;94643.13;;;8.18;81.50
6136;BME280;24008;42.664;23.372;2022-12-07T08:56:00;94623.09;;;8.04;81.22
6136;BME280;24008;42.664;23.372;2022-12-07T08:58:27;94656.53;;;8.20;82.08
6136;BME280;24008;42.664;23.372;2022-12-07T09:00:54;94646.34;;;8.20;82.61
6136;BME280;24008;42.664;23.372;2022-12-07T09:03:20;94641.25;;;8.20;81.93
6136;BME280;24008;42.664;23.372;2022-12-07T09:05:47;94633.19;;;8.15;81.93
6136;BME280;24008;42.664;23.372;2022-12-07T09:08:14;94655.66;;;8.10;82.10
6136;BME280;24008;42.664;23.372;2022-12-07T09:10:43;94643.50;;;8.13;82.62
6136;BME280;24008;42.664;23.372;2022-12-07T09:13:09;94619.03;;;7.91;81.42
6136;BME280;24008;42.664;23.372;2022-12-07T09:15:36;94635.81;;;8.04;82.78
6136;BME280;24008;42.664;23.372;2022-12-07T09:18:03;94433.06;;;6.63;82.52
6136;BME280;24008;42.664;23.372;2022-12-07T09:20:30;94631.66;;;8.03;82.96
6136;BME280;24008;42.664;23.372;2022-12-07T09:22:56;94621.91;;;8.08;82.66
6136;BME280;24008;42.664;23.372;2022-12-07T09:25:23;94592.91;;;7.89;81.99
6136;BME280;24008;42.664;23.372;2022-12-07T09:27:56;94614.44;;;8.16;83.44
6136;BME280;24008;42.664;23.372;2022-12-07T09:30:24;94626.19;;;8.07;82.38
6136;BME280;24008;42.664;23.372;2022-12-07T09:32:52;94622.44;;;8.11;82.73
6136;BME280;24008;42.664;23.372;2022-12-07T09:35:19;94590.59;;;7.86;82.41
6136;BME280;24008;42.664;23.372;2022-12-07T09:37:46;94596.00;;;7.93;83.68
6136;BME280;24008;42.664;23.372;2022-12-07T09:40:14;94503.78;;;7.40;83.46
6136;BME280;24008;42.664;23.372;2022-12-07T09:42:43;94596.94;;;7.92;84.72
6136;BME280;24008;42.664;23.372;2022-12-07T09:45:15;94548.91;;;7.68;83.85
6136;BME280;24008;42.664;23.372;2022-12-07T09:47:43;94367.22;;;6.50;83.64
6136;BME280;24008;42.664;23.372;2022-12-07T09:50:13;94571.75;;;7.89;84.06
6136;BME280;24008;42.664;23.372;2022-12-07T09:52:42;94575.94;;;8.00;83.32
6136;BME280;24008;42.664;23.372;2022-12-07T09:55:12;94554.88;;;7.97;84.19
6136;BME280;24008;42.664;23.372;2022-12-07T09:57:39;94592.47;;;8.15;84.74
6136;BME280;24008;42.664;23.372;2022-12-07T10:00:15;94594.06;;;8.16;84.49
6136;BME280;24008;42.664;23.372;2022-12-07T10:02:44;94554.75;;;7.99;84.52
6136;BME280;24008;42.664;23.372;2022-12-07T10:05:14;94577.88;;;8.17;85.57
6136;BME280;24008;42.664;23.372;2022-12-07T10:07:43;94583.91;;;8.25;84.75
6136;BME280;24008;42.664;23.372;2022-12-07T10:10:15;94575.91;;;8.30;84.25
6136;BME280;24008;42.664;23.372;2022-12-07T10:12:55;94534.56;;;8.07;83.92
6136;BME280;24008;42.664;23.372;2022-12-07T10:15:40;94567.50;;;8.49;84.19
6136;BME280;24008;42.664;23.372;2022-12-07T10:18:17;94561.47;;;8.59;83.60
6136;BME280;24008;42.664;23.372;2022-12-07T10:20:45;94562.69;;;8.55;82.35
6136;BME280;24008;42.664;23.372;2022-12-07T10:23:14;94544.19;;;8.53;81.60
6136;BME280;24008;42.664;23.372;2022-12-07T10:25:41;94562.28;;;8.70;80.05
6136;BME280;24008;42.664;23.372;2022-12-07T10:28:12;94564.69;;;8.71;79.63
6136;BME280;24008;42.664;23.372;2022-12-07T10:30:51;94493.78;;;8.47;79.39
6136;BME280;24008;42.664;23.372;2022-12-07T10:33:30;94519.25;;;8.86;78.99
6136;BME280;24008;42.664;23.372;2022-12-07T10:35:58;94471.22;;;8.72;78.84
6136;BME280;24008;42.664;23.372;2022-12-07T10:38:26;94483.97;;;8.91;77.42
6136;BME280;24008;42.664;23.372;2022-12-07T10:41:05;94507.38;;;9.23;76.09
6136;BME280;24008;42.664;23.372;2022-12-07T10:43:33;94536.19;;;9.43;75.44
6136;BME280;24008;42.664;23.372;2022-12-07T10:49:24;94531.38;;;9.30;74.43
6136;BME280;24008;42.664;23.372;2022-12-07T10:51:59;94495.19;;;9.17;75.26
6136;BME280;24008;42.664;23.372;2022-12-07T10:54:37;94527.94;;;9.12;75.34
6136;BME280;24008;42.664;23.372;2022-12-07T10:57:20;94492.81;;;8.87;76.31
6136;BME280;24008;42.664;23.372;2022-12-07T11:00:01;94510.19;;;9.20;76.00
6136;BME280;24008;42.664;23.372;2022-12-07T11:02:38;94462.44;;;9.13;75.65
6136;BME280;24008;42.664;23.372;2022-12-07T11:05:19;94500.28;;;9.54;74.97
6136;BME280;24008;42.664;23.372;2022-12-07T11:07:57;94436.06;;;9.31;73.83
6136;BME280;24008;42.664;23.372;2022-12-07T11:10:30;94490.47;;;9.59;72.32
6136;BME280;24008;42.664;23.372;2022-12-07T11:13:16;94497.75;;;9.54;73.73
6136;BME280;24008;42.664;23.372;2022-12-07T11:15:59;94505.25;;;9.56;73.38
6136;BME280;24008;42.664;23.372;2022-12-07T11:18:33;94470.91;;;9.50;74.16
6136;BME280;24008;42.664;23.372;2022-12-07T11:21:11;94500.84;;;9.85;72.68
6136;BME280;24008;42.664;23.372;2022-12-07T11:23:48;94502.66;;;9.75;72.33
6136;BME280;24008;42.664;23.372;2022-12-07T11:26:27;94488.22;;;9.84;71.98
6136;BME280;24008;42.664;23.372;2022-12-07T11:29:14;94484.06;;;9.83;72.77
6136;BME280;24008;42.664;23.372;2022-12-07T11:31:57;94276.22;;;8.50;72.10
6136;BME280;24008;42.664;23.372;2022-12-07T11:34:35;94481.78;;;9.80;72.95
6136;BME280;24008;42.664;23.372;2022-12-07T11:37:09;94465.38;;;9.82;72.74
6136;BME280;24008;42.664;23.372;2022-12-07T11:39:41;94458.94;;;9.78;71.46
6136;BME280;24008;42.664;23.372;2022-12-07T11:42:14;94405.59;;;9.30;71.50
6136;BME280;24008;42.664;23.372;2022-12-07T11:44:49;94457.38;;;9.50;72.22
6136;BME280;24008;42.664;23.372;2022-12-07T11:47:22;94466.81;;;9.39;72.38
6136;BME280;24008;42.664;23.372;2022-12-07T11:49:54;94431.06;;;9.12;72.78
6136;BME280;24008;42.664;23.372;2022-12-07T11:52:32;94454.63;;;9.24;73.61
6136;BME280;24008;42.664;23.372;2022-12-07T11:55:05;94447.25;;;9.21;74.29
6136;BME280;24008;42.664;23.372;2022-12-07T11:57:45;94458.41;;;9.20;74.92
6136;BME280;24008;42.664;23.372;2022-12-07T12:00:17;94238.69;;;7.76;74.62
6136;BME280;24008;42.664;23.372;2022-12-07T12:02:50;94443.66;;;9.14;74.85
6136;BME280;24008;42.664;23.372;2022-12-07T12:05:20;94447.38;;;9.19;74.90
6136;BME280;24008;42.664;23.372;2022-12-07T12:07:53;94410.94;;;9.09;74.76
6136;BME280;24008;42.664;23.372;2022-12-07T12:10:33;94401.81;;;9.07;75.00
6136;BME280;24008;42.664;23.372;2022-12-07T12:13:20;94429.03;;;9.16;75.13
6136;BME280;24008;42.664;23.372;2022-12-07T12:16:02;94364.66;;;8.67;75.33
6136;BME280;24008;42.664;23.372;2022-12-07T12:18:53;94433.78;;;9.01;74.93
6136;BME280;24008;42.664;23.372;2022-12-07T12:21:27;94415.81;;;8.83;76.39
6136;BME280;24008;42.664;23.372;2022-12-07T12:23:59;94423.59;;;8.91;75.95
6136;BME280;24008;42.664;23.372;2022-12-07T12:26:29;94415.41;;;8.97;76.73
6136;BME280;24008;42.664;23.372;2022-12-07T12:28:59;94422.78;;;9.00;76.46
6136;BME280;24008;42.664;23.372;2022-12-07T12:31:38;94398.78;;;8.84;76.21
6136;BME280;24008;42.664;23.372;2022-12-07T12:34:33;94376.81;;;8.83;75.98
6136;BME280;24008;42.664;23.372;2022-12-07T12:37:41;94405.84;;;9.09;76.38
6136;BME280;24008;42.664;23.372;2022-12-07T12:43:41;94399.53;;;9.13;76.22
6136;BME280;24008;42.664;23.372;2022-12-07T12:46:37;94401.78;;;9.16;76.39
6136;BME280;24008;42.664;23.372;2022-12-07T12:49:32;94383.28;;;9.14;75.80
6136;BME280;24008;42.664;23.372;2022-12-07T12:52:01;94390.81;;;9.06;76.41
6136;BME280;24008;42.664;23.372;2022-12-07T12:54:59;94310.22;;;8.58;76.95
6136;BME280;24008;42.664;23.372;2022-12-07T12:57:29;94400.94;;;9.25;76.44
6136;BME280;24008;42.664;23.372;2022-12-07T12:59:59;94394.06;;;9.35;76.21
6136;BME280;24008;42.664;23.372;2022-12-07T13:02:27;94401.25;;;9.50;76.19
6136;BME280;24008;42.664;23.372;2022-12-07T13:04:56;94373.72;;;9.44;74.97
6136;BME280;24008;42.664;23.372;2022-12-07T13:07:55;94399.97;;;9.63;74.74
6136;BME280;24008;42.664;23.372;2022-12-07T13:10:30;94401.31;;;9.58;74.56
6136;BME280;24008;42.664;23.372;2022-12-07T13:13:00;94338.69;;;9.18;75.01
6136;BME280;24008;42.664;23.372;2022-12-07T13:15:38;94394.78;;;9.73;74.47
6136;BME280;24008;42.664;23.372;2022-12-07T13:18:35;94396.84;;;9.87;74.89
6136;BME280;24008;42.664;23.372;2022-12-07T13:21:02;94401.22;;;9.95;74.11
6136;BME280;24008;42.664;23.372;2022-12-07T13:23:31;94400.66;;;10.01;73.12
6136;BME280;24008;42.664;23.372;2022-12-07T13:26:04;94368.13;;;9.85;73.37
6136;BME280;24008;42.664;23.372;2022-12-07T13:28:38;94375.63;;;9.87;73.15
6136;BME280;24008;42.664;23.372;2022-12-07T13:31:15;94392.34;;;9.99;73.08
6136;BME280;24008;42.664;23.372;2022-12-07T13:33:46;94401.09;;;9.96;73.12